KGYB

Giddings-Lee County Airport

Giddings, Texas, USA
METAR KGYB 140455Z AUTO 29003KT 10SM CLR M01/M03 A3053 RMK AO2 T10111026
Observed Flight Rules
Nov-14 @ 04:55 UTC (24 minutes ago) Visual Flight Rules
Wind Visibility Clouds
290° at 3 knots 10 miles
  • Clear skies
Temperatures Readings
Current -1°C / 30°F
Dewpoint -3°C / 27°F
Humidity 86%
Altimeter 30.53" Hg
Pressure 1034 hPa
Elevation 148
METAR KGYB 140455Z AUTO 29003KT 10SM CLR M01/M03 A3053 RMK AO2 T10111026
Observed Flight Rules
Nov-14 @ 04:55 UTC
(24 minutes ago)
VFR
Wind Visibility
290° at 3 knots 10 miles
Clouds
  • Clear skies
Temperature Dewpoint
-1°C / 30°F -3°C / 27°F
Humidity Altimeter Pressure
86% 30.53" Hg 1034 hPa